createdAt,value
2022-12-12T00:01:12.702Z,5.75
2022-12-12T00:04:14.324Z,5.60
2022-12-12T00:07:15.802Z,5.55
2022-12-12T00:10:17.403Z,5.65
2022-12-12T00:13:19.032Z,4.68
2022-12-12T00:16:20.870Z,5.57
2022-12-12T00:19:22.548Z,5.85
2022-12-12T00:22:24.143Z,5.93
2022-12-12T00:25:25.880Z,6.57
2022-12-12T00:28:28.332Z,6.45
2022-12-12T00:31:30.049Z,5.38
2022-12-12T00:34:31.639Z,5.82
2022-12-12T00:37:33.143Z,5.38
2022-12-12T00:40:35.347Z,5.75
2022-12-12T00:43:36.955Z,5.40
2022-12-12T00:46:39.357Z,5.63
2022-12-12T00:49:40.965Z,5.72
2022-12-12T00:52:42.578Z,5.05
2022-12-12T00:55:44.089Z,5.60
2022-12-12T00:58:46.002Z,5.63
2022-12-12T01:01:47.730Z,5.78
2022-12-12T01:04:49.269Z,5.40
2022-12-12T01:07:52.670Z,5.35
2022-12-12T01:10:54.660Z,6.30
2022-12-12T01:13:56.768Z,5.57
2022-12-12T01:16:58.532Z,5.75
2022-12-12T01:20:00.110Z,7.22
2022-12-12T01:23:01.702Z,6.80
2022-12-12T01:26:08.149Z,6.32
2022-12-12T01:29:09.667Z,6.20
2022-12-12T01:32:11.284Z,5.32
2022-12-12T01:35:12.954Z,6.95
2022-12-12T01:38:14.603Z,7.05
2022-12-12T01:41:17.194Z,6.75
2022-12-12T01:44:40.303Z,6.07
2022-12-12T01:47:41.806Z,6.47
2022-12-12T01:50:44.608Z,5.82
2022-12-12T01:53:49.346Z,5.45
2022-12-12T01:56:53.282Z,5.05
2022-12-12T01:59:55.145Z,5.55
2022-12-12T02:02:57.076Z,4.90
2022-12-12T02:06:02.379Z,5.05
2022-12-12T02:09:08.092Z,5.50
2022-12-12T02:12:14.728Z,5.57
2022-12-12T02:15:18.522Z,6.72
2022-12-12T02:18:37.731Z,5.47
2022-12-12T02:21:55.686Z,5.35
2022-12-12T02:25:25.218Z,5.82
2022-12-12T02:28:41.272Z,4.72
2022-12-12T02:31:58.973Z,5.07
2022-12-12T02:35:03.902Z,4.93
2022-12-12T02:38:19.739Z,4.60
2022-12-12T02:41:26.882Z,4.88
2022-12-12T02:44:35.849Z,5.07
2022-12-12T02:47:43.283Z,4.43
2022-12-12T02:50:48.112Z,4.75
2022-12-12T02:53:49.653Z,5.20
2022-12-12T02:56:52.867Z,5.22
2022-12-12T03:00:01.709Z,4.40
2022-12-12T03:03:43.767Z,5.00
2022-12-12T03:07:22.277Z,5.18
2022-12-12T03:11:00.008Z,5.30
2022-12-12T03:14:14.769Z,4.40
2022-12-12T03:17:28.603Z,4.72
2022-12-12T03:20:40.686Z,4.60
2022-12-12T03:23:47.901Z,4.82
2022-12-12T03:26:54.614Z,4.78
2022-12-12T03:30:02.479Z,4.50
2022-12-12T03:33:11.775Z,4.68
2022-12-12T03:36:27.556Z,4.90
2022-12-12T03:40:01.466Z,3.80
2022-12-12T03:43:09.662Z,4.53
2022-12-12T03:46:19.654Z,5.13
2022-12-12T03:49:26.274Z,5.13
2022-12-12T03:52:35.016Z,4.38
2022-12-12T03:55:43.785Z,4.47
2022-12-12T03:59:02.544Z,5.47
2022-12-12T04:02:12.917Z,4.43
2022-12-12T04:05:18.502Z,5.68
2022-12-12T04:08:20.819Z,4.15
2022-12-12T04:11:40.996Z,4.35
2022-12-12T04:14:51.708Z,4.47
2022-12-12T04:18:17.323Z,5.50
2022-12-12T04:21:49.538Z,5.10
2022-12-12T04:25:16.202Z,5.15
2022-12-12T04:28:18.663Z,6.75
2022-12-12T04:31:25.365Z,5.05
2022-12-12T04:35:05.187Z,5.57
2022-12-12T04:38:13.504Z,4.68
2022-12-12T04:41:18.091Z,5.00
2022-12-12T04:44:23.144Z,5.38
2022-12-12T04:47:29.243Z,5.00
2022-12-12T04:50:32.854Z,4.75
2022-12-12T04:53:39.561Z,5.20
2022-12-12T04:56:44.381Z,5.03
2022-12-12T04:59:46.221Z,4.63
2022-12-12T05:02:57.806Z,4.78
2022-12-12T05:06:08.856Z,5.20
2022-12-12T05:09:11.840Z,5.82
2022-12-12T05:12:16.000Z,4.85
2022-12-12T05:15:19.556Z,5.90
2022-12-12T05:18:22.502Z,5.75
2022-12-12T05:21:24.068Z,6.53
2022-12-12T05:24:30.752Z,6.75
2022-12-12T05:27:32.275Z,6.10
2022-12-12T05:30:33.971Z,6.65
2022-12-12T05:33:35.470Z,5.88
2022-12-12T05:36:36.978Z,6.40
2022-12-12T05:39:38.564Z,6.57
2022-12-12T05:42:40.673Z,6.32
2022-12-12T05:45:42.373Z,6.30
2022-12-12T05:48:51.719Z,5.80
2022-12-12T05:51:54.733Z,5.72
2022-12-12T05:54:56.270Z,5.75
2022-12-12T05:57:57.930Z,6.30
2022-12-12T06:01:03.212Z,5.78
2022-12-12T06:04:05.555Z,5.93
2022-12-12T06:07:07.180Z,6.07
2022-12-12T06:10:08.893Z,6.70
2022-12-12T06:13:10.474Z,8.70
2022-12-12T06:16:16.057Z,8.60
2022-12-12T06:19:20.935Z,14.80
2022-12-12T06:22:22.668Z,10.82
2022-12-12T06:25:24.599Z,15.77
2022-12-12T06:28:26.136Z,10.43
2022-12-12T06:31:27.652Z,11.57
2022-12-12T06:34:29.194Z,8.00
2022-12-12T06:37:30.758Z,11.57
2022-12-12T06:40:33.135Z,11.43
2022-12-12T06:43:34.723Z,10.45
2022-12-12T06:46:36.579Z,10.35
2022-12-12T06:49:38.379Z,12.70
2022-12-12T06:52:39.934Z,14.30
2022-12-12T06:55:43.302Z,10.38
2022-12-12T06:58:45.034Z,22.38
2022-12-12T07:01:47.017Z,13.65
2022-12-12T07:04:48.629Z,13.70
2022-12-12T07:07:50.274Z,11.85
2022-12-12T07:10:51.976Z,12.02
2022-12-12T07:13:55.759Z,11.73
2022-12-12T07:19:58.927Z,8.18
2022-12-12T07:23:00.495Z,9.63
2022-12-12T07:26:11.431Z,9.40
2022-12-12T07:29:13.031Z,7.97
2022-12-12T07:32:14.532Z,11.27
2022-12-12T07:35:16.267Z,14.25
2022-12-12T07:38:17.804Z,14.60
2022-12-12T07:41:20.828Z,17.15
2022-12-12T07:44:24.421Z,18.55
2022-12-12T07:47:26.007Z,17.83
2022-12-12T07:50:27.550Z,21.40
2022-12-12T07:53:30.031Z,28.27
2022-12-12T07:56:31.544Z,15.27
2022-12-12T07:59:33.046Z,22.02
2022-12-12T08:02:34.799Z,14.30
2022-12-12T08:05:40.682Z,14.02
2022-12-12T08:08:43.588Z,16.65
2022-12-12T08:11:46.699Z,14.98
2022-12-12T08:14:49.017Z,15.30
2022-12-12T08:17:50.676Z,16.70
2022-12-12T08:20:52.240Z,15.52
2022-12-12T08:24:02.332Z,15.07
2022-12-12T08:27:04.060Z,15.32
2022-12-12T08:30:06.293Z,17.08
2022-12-12T08:33:08.425Z,14.70
2022-12-12T08:36:13.979Z,13.05
2022-12-12T08:39:23.156Z,15.27
2022-12-12T08:42:24.716Z,14.75
2022-12-12T08:45:26.255Z,13.25
2022-12-12T08:48:28.288Z,13.82
2022-12-12T08:51:29.871Z,14.10
2022-12-12T08:54:31.706Z,13.73
2022-12-12T08:57:33.615Z,15.43
2022-12-12T09:00:35.608Z,20.60
2022-12-12T09:03:37.223Z,42.40
2022-12-12T09:06:38.825Z,43.40
2022-12-12T09:09:40.367Z,31.95
2022-12-12T09:12:42.331Z,23.88
2022-12-12T09:15:44.103Z,22.67
2022-12-12T09:18:48.938Z,21.55
2022-12-12T09:21:51.151Z,18.40
2022-12-12T09:24:52.798Z,15.05
2022-12-12T09:27:54.483Z,11.43
2022-12-12T09:30:55.998Z,9.63
2022-12-12T09:33:57.468Z,10.43
2022-12-12T09:36:59.083Z,10.50
2022-12-12T09:40:00.578Z,10.68
2022-12-12T09:43:02.777Z,12.95
2022-12-12T09:46:16.383Z,12.20
2022-12-12T09:52:46.421Z,12.60
2022-12-12T09:55:58.277Z,12.73
2022-12-12T09:59:36.793Z,12.95
2022-12-12T10:03:16.909Z,10.93
2022-12-12T10:06:37.854Z,11.18
2022-12-12T10:10:12.688Z,11.57
2022-12-12T10:13:26.713Z,11.85
2022-12-12T10:16:31.660Z,12.52
2022-12-12T10:19:42.492Z,13.40
2022-12-12T10:23:13.151Z,14.23
2022-12-12T10:26:14.664Z,13.93
2022-12-12T10:30:04.085Z,12.75
2022-12-12T10:33:43.626Z,12.73
2022-12-12T10:37:09.920Z,13.43
2022-12-12T10:40:23.747Z,12.80
2022-12-12T10:44:00.567Z,13.95
2022-12-12T10:47:06.494Z,13.45
2022-12-12T10:50:27.309Z,14.80
2022-12-12T10:53:31.211Z,16.35
2022-12-12T10:56:34.224Z,14.30
2022-12-12T10:59:47.447Z,13.85
2022-12-12T11:02:49.092Z,14.27
2022-12-12T11:05:51.070Z,13.77
2022-12-12T11:09:06.178Z,15.27
2022-12-12T11:12:16.729Z,14.27
2022-12-12T11:15:18.403Z,14.15
2022-12-12T11:18:22.706Z,12.82
2022-12-12T11:21:24.547Z,13.27
2022-12-12T11:24:31.471Z,14.70
2022-12-12T11:27:40.769Z,14.68
2022-12-12T11:30:44.136Z,14.18
2022-12-12T11:33:49.190Z,15.15
2022-12-12T11:36:50.774Z,15.95
2022-12-12T11:39:54.615Z,16.00
2022-12-12T11:43:07.848Z,16.83
2022-12-12T11:46:13.711Z,15.32
2022-12-12T11:49:19.509Z,14.05
2022-12-12T11:52:26.950Z,14.38
2022-12-12T11:55:52.203Z,14.05
2022-12-12T11:59:11.477Z,15.55
2022-12-12T12:02:29.386Z,14.98
2022-12-12T12:06:04.680Z,15.93
2022-12-12T12:09:22.311Z,14.55
2022-12-12T12:12:57.838Z,15.02
2022-12-12T12:15:59.315Z,14.05
2022-12-12T12:19:19.210Z,14.60
2022-12-12T12:22:35.659Z,15.55
2022-12-12T12:25:55.961Z,16.77
2022-12-12T12:29:15.696Z,15.60
2022-12-12T12:32:34.426Z,16.33
2022-12-12T12:36:06.767Z,16.75
2022-12-12T12:39:17.188Z,16.65
2022-12-12T12:42:57.572Z,15.43
2022-12-12T12:46:14.622Z,15.90
2022-12-12T12:49:30.957Z,15.43
2022-12-12T12:52:52.272Z,15.13
2022-12-12T12:55:58.783Z,15.57
2022-12-12T12:59:04.387Z,16.85
2022-12-12T13:02:27.386Z,17.25
2022-12-12T13:05:44.159Z,16.05
2022-12-12T13:09:13.892Z,16.05
2022-12-12T13:12:27.458Z,15.20
2022-12-12T13:15:34.641Z,16.33
2022-12-12T13:18:51.901Z,15.45
2022-12-12T13:22:08.496Z,15.32
2022-12-12T13:25:18.926Z,17.65
2022-12-12T13:28:35.418Z,16.67
2022-12-12T13:31:43.260Z,17.65
2022-12-12T13:34:48.255Z,19.58
2022-12-12T13:37:54.064Z,15.90
2022-12-12T13:41:01.601Z,16.27
2022-12-12T13:44:03.184Z,16.83
2022-12-12T13:47:12.234Z,15.27
2022-12-12T13:50:22.632Z,14.30
2022-12-12T13:53:24.242Z,14.95
2022-12-12T13:56:52.491Z,15.27
2022-12-12T13:59:54.156Z,15.45
2022-12-12T14:03:04.744Z,15.73
2022-12-12T14:06:12.312Z,14.48
2022-12-12T14:09:21.527Z,15.18
2022-12-12T14:12:33.510Z,16.25
2022-12-12T14:15:40.141Z,16.63
2022-12-12T14:18:58.968Z,17.52
2022-12-12T14:22:01.155Z,18.48
2022-12-12T14:25:11.716Z,16.63
2022-12-12T14:28:25.809Z,16.85
2022-12-12T14:31:35.080Z,17.70
2022-12-12T14:34:58.304Z,17.17
2022-12-12T14:38:27.769Z,17.55
2022-12-12T14:41:38.500Z,17.73
2022-12-12T14:44:47.845Z,17.73
2022-12-12T14:48:15.535Z,17.95
2022-12-12T14:51:25.848Z,17.35
2022-12-12T14:54:30.934Z,17.30
2022-12-12T14:57:32.752Z,15.93
2022-12-12T15:00:34.347Z,16.88
2022-12-12T15:03:48.303Z,18.50
2022-12-12T15:06:54.545Z,17.08
2022-12-12T15:09:56.482Z,16.80
2022-12-12T15:12:58.165Z,17.17
2022-12-12T15:15:59.862Z,14.60
2022-12-12T15:19:02.391Z,16.85
2022-12-12T15:22:11.399Z,17.25
2022-12-12T15:25:25.148Z,16.55
2022-12-12T15:28:27.342Z,18.83
2022-12-12T15:31:28.929Z,17.05
2022-12-12T15:34:40.336Z,17.15
2022-12-12T15:37:42.099Z,18.17
2022-12-12T15:40:47.714Z,19.77
2022-12-12T15:43:49.392Z,18.45
2022-12-12T15:46:51.260Z,18.58
2022-12-12T15:49:53.622Z,18.52
2022-12-12T15:53:01.745Z,18.35
2022-12-12T15:56:10.355Z,18.25
2022-12-12T15:59:21.389Z,18.05
2022-12-12T16:02:32.218Z,18.20
2022-12-12T16:05:36.890Z,17.73
2022-12-12T16:08:44.665Z,18.27
2022-12-12T16:11:48.487Z,18.63
2022-12-12T16:14:50.064Z,19.80
2022-12-12T16:18:04.759Z,23.23
2022-12-12T16:24:21.725Z,19.52
2022-12-12T16:27:23.276Z,22.10
2022-12-12T16:30:26.520Z,21.90
2022-12-12T16:33:36.146Z,19.05
2022-12-12T16:36:41.850Z,20.95
2022-12-12T16:39:44.375Z,19.75
2022-12-12T16:43:09.421Z,19.08
2022-12-12T16:46:23.378Z,19.02
2022-12-12T16:49:24.977Z,20.23
2022-12-12T16:52:26.731Z,20.42
2022-12-12T16:55:28.636Z,19.70
2022-12-12T16:58:30.189Z,18.48
2022-12-12T17:01:35.944Z,20.33
2022-12-12T17:04:40.187Z,19.63
2022-12-12T17:07:41.860Z,19.40
2022-12-12T17:10:46.053Z,44.15
2022-12-12T17:13:49.219Z,28.83
2022-12-12T17:16:51.675Z,21.17
2022-12-12T17:19:53.196Z,22.48
2022-12-12T17:22:54.828Z,21.75
2022-12-12T17:26:03.103Z,20.67
2022-12-12T17:29:07.565Z,21.30
2022-12-12T17:32:09.113Z,25.40
2022-12-12T17:35:10.684Z,24.67
2022-12-12T17:38:16.185Z,31.90
2022-12-12T17:41:18.074Z,25.70
2022-12-12T17:44:23.733Z,35.63
2022-12-12T17:47:25.749Z,27.13
2022-12-12T17:50:27.284Z,23.27
2022-12-12T17:53:38.231Z,30.23
2022-12-12T17:56:39.863Z,31.98
2022-12-12T17:59:42.524Z,25.90
2022-12-12T18:02:44.424Z,26.17
2022-12-12T18:05:45.983Z,26.70
2022-12-12T18:08:48.976Z,27.15
2022-12-12T18:11:50.500Z,29.08
2022-12-12T18:14:52.127Z,29.27
2022-12-12T18:17:53.682Z,27.23
2022-12-12T18:20:55.275Z,28.25
2022-12-12T18:23:58.350Z,30.80
2022-12-12T18:27:01.232Z,26.42
2022-12-12T18:30:02.748Z,33.35
2022-12-12T18:33:04.262Z,28.38
2022-12-12T18:36:13.302Z,28.85
2022-12-12T18:39:14.987Z,26.75
2022-12-12T18:42:16.826Z,29.67
2022-12-12T18:45:18.334Z,26.70
2022-12-12T18:48:19.918Z,24.10
2022-12-12T18:51:24.526Z,24.50
2022-12-12T18:54:26.127Z,24.10
2022-12-12T18:57:28.015Z,24.02
2022-12-12T19:00:30.109Z,25.38
2022-12-12T19:03:31.678Z,21.52
2022-12-12T19:06:36.007Z,21.40
2022-12-12T19:09:37.568Z,22.90
2022-12-12T19:12:39.108Z,23.92
2022-12-12T19:15:40.677Z,22.00
2022-12-12T19:18:42.919Z,22.00
2022-12-12T19:21:53.586Z,24.00
2022-12-12T19:24:55.166Z,22.40
2022-12-12T19:27:58.131Z,27.00
2022-12-12T19:31:00.354Z,22.17
2022-12-12T19:34:06.638Z,25.50
2022-12-12T19:37:08.221Z,24.45
2022-12-12T19:40:10.764Z,26.40
2022-12-12T19:43:12.462Z,27.17
2022-12-12T19:46:17.046Z,24.67
2022-12-12T19:49:18.691Z,25.60
2022-12-12T19:52:20.283Z,25.95
2022-12-12T19:55:21.933Z,25.35
2022-12-12T19:58:23.439Z,25.63
2022-12-12T20:01:28.602Z,24.30
2022-12-12T20:04:30.484Z,24.02
2022-12-12T20:07:32.192Z,22.02
2022-12-12T20:10:38.808Z,22.27
2022-12-12T20:13:40.821Z,23.17
2022-12-12T20:16:43.513Z,21.13
2022-12-12T20:19:47.321Z,19.80
2022-12-12T20:25:50.402Z,21.95
2022-12-12T20:28:53.478Z,22.02
2022-12-12T20:31:55.026Z,24.17
2022-12-12T20:34:56.565Z,25.38
2022-12-12T20:37:59.348Z,21.20
2022-12-12T20:41:01.677Z,23.85
2022-12-12T20:44:05.636Z,31.80
2022-12-12T20:47:09.807Z,26.98
2022-12-12T20:50:13.527Z,25.42
2022-12-12T20:53:15.026Z,28.13
2022-12-12T20:56:19.019Z,27.83
2022-12-12T20:59:20.539Z,29.63
2022-12-12T21:02:25.031Z,26.08
2022-12-12T21:05:30.284Z,27.08
2022-12-12T21:08:31.938Z,29.95
2022-12-12T21:11:34.053Z,29.92
2022-12-12T21:14:36.905Z,30.52
2022-12-12T21:17:38.476Z,27.83
2022-12-12T21:20:44.174Z,29.15
2022-12-12T21:23:46.184Z,26.05
2022-12-12T21:26:48.516Z,26.67
2022-12-12T21:29:49.991Z,28.70
2022-12-12T21:32:51.555Z,36.35
2022-12-12T21:35:53.980Z,38.47
2022-12-12T21:38:57.381Z,35.00
2022-12-12T21:41:58.881Z,28.27
2022-12-12T21:45:00.705Z,34.33
2022-12-12T21:48:02.190Z,32.55
2022-12-12T21:51:07.007Z,36.05
2022-12-12T21:54:09.995Z,25.95
2022-12-12T21:57:12.759Z,27.70
2022-12-12T22:00:14.527Z,24.92
2022-12-12T22:03:16.051Z,23.92
2022-12-12T22:06:27.033Z,27.70
2022-12-12T22:09:28.616Z,30.58
2022-12-12T22:12:31.562Z,28.35
2022-12-12T22:15:33.006Z,28.38
2022-12-12T22:18:34.583Z,32.45
2022-12-12T22:21:36.603Z,25.13
2022-12-12T22:24:38.151Z,29.85
2022-12-12T22:27:39.700Z,25.80
2022-12-12T22:30:42.085Z,25.38
2022-12-12T22:33:44.519Z,27.05
2022-12-12T22:36:46.948Z,28.10
2022-12-12T22:39:48.511Z,27.48
2022-12-12T22:42:50.087Z,25.40
2022-12-12T22:45:51.651Z,28.02
2022-12-12T22:48:54.983Z,28.35
2022-12-12T22:51:57.876Z,25.38
2022-12-12T22:54:59.524Z,23.20
2022-12-12T22:58:01.195Z,23.05
2022-12-12T23:01:11.978Z,26.13
2022-12-12T23:04:14.166Z,22.63
2022-12-12T23:07:15.841Z,26.40
2022-12-12T23:10:17.975Z,23.75
2022-12-12T23:13:19.967Z,23.70
2022-12-12T23:16:24.752Z,22.23
2022-12-12T23:19:28.742Z,21.88
2022-12-12T23:22:30.907Z,21.80
2022-12-12T23:25:32.533Z,22.55
2022-12-12T23:28:35.272Z,19.50
2022-12-12T23:31:38.635Z,20.58
2022-12-12T23:34:40.385Z,20.63
2022-12-12T23:37:41.983Z,22.23
2022-12-12T23:40:43.893Z,19.77
2022-12-12T23:43:45.595Z,21.58
2022-12-12T23:46:47.426Z,17.80
2022-12-12T23:49:49.027Z,16.60
2022-12-12T23:52:50.640Z,17.83
2022-12-12T23:55:52.640Z,17.55
2022-12-12T23:58:55.822Z,16.17
